sensor_id;sensor_type;location;lat;lon;timestamp;P1;durP1;ratioP1;P2;durP2;ratioP2
26750;SDS011;14345;48.272;25.926;2023-11-21T00:01:05;81.30;;;45.78;;
26750;SDS011;14345;48.272;25.926;2023-11-21T00:03:33;85.28;;;49.33;;
26750;SDS011;14345;48.272;25.926;2023-11-21T00:05:59;91.78;;;54.72;;
26750;SDS011;14345;48.272;25.926;2023-11-21T00:08:25;96.18;;;56.35;;
26750;SDS011;14345;48.272;25.926;2023-11-21T00:10:52;93.22;;;54.88;;
26750;SDS011;14345;48.272;25.926;2023-11-21T00:13:19;88.78;;;52.97;;
26750;SDS011;14345;48.272;25.926;2023-11-21T00:15:45;99.78;;;58.95;;
26750;SDS011;14345;48.272;25.926;2023-11-21T00:18:12;103.97;;;59.90;;
26750;SDS011;14345;48.272;25.926;2023-11-21T00:20:39;102.22;;;58.90;;
26750;SDS011;14345;48.272;25.926;2023-11-21T00:23:05;102.00;;;58.38;;
26750;SDS011;14345;48.272;25.926;2023-11-21T00:25:32;98.32;;;57.20;;
26750;SDS011;14345;48.272;25.926;2023-11-21T00:27:58;101.07;;;55.65;;
26750;SDS011;14345;48.272;25.926;2023-11-21T00:30:26;98.72;;;55.92;;
26750;SDS011;14345;48.272;25.926;2023-11-21T00:32:52;92.22;;;52.90;;
26750;SDS011;14345;48.272;25.926;2023-11-21T00:35:19;87.20;;;49.03;;
26750;SDS011;14345;48.272;25.926;2023-11-21T00:37:45;85.50;;;49.35;;
26750;SDS011;14345;48.272;25.926;2023-11-21T00:40:11;81.55;;;47.97;;
26750;SDS011;14345;48.272;25.926;2023-11-21T00:42:39;76.35;;;45.50;;
26750;SDS011;14345;48.272;25.926;2023-11-21T00:45:06;75.10;;;45.45;;
26750;SDS011;14345;48.272;25.926;2023-11-21T00:47:32;73.05;;;44.13;;
26750;SDS011;14345;48.272;25.926;2023-11-21T00:49:58;65.68;;;41.08;;
26750;SDS011;14345;48.272;25.926;2023-11-21T00:52:24;63.08;;;39.63;;
26750;SDS011;14345;48.272;25.926;2023-11-21T00:54:51;66.65;;;39.55;;
26750;SDS011;14345;48.272;25.926;2023-11-21T00:57:17;62.58;;;39.40;;
26750;SDS011;14345;48.272;25.926;2023-11-21T00:59:43;60.28;;;37.20;;
26750;SDS011;14345;48.272;25.926;2023-11-21T01:02:09;57.75;;;35.67;;
26750;SDS011;14345;48.272;25.926;2023-11-21T01:04:35;55.45;;;35.97;;
26750;SDS011;14345;48.272;25.926;2023-11-21T01:07:02;54.17;;;35.15;;
26750;SDS011;14345;48.272;25.926;2023-11-21T01:09:30;59.10;;;38.20;;
26750;SDS011;14345;48.272;25.926;2023-11-21T01:11:56;58.83;;;36.47;;
26750;SDS011;14345;48.272;25.926;2023-11-21T01:14:22;62.17;;;36.67;;
26750;SDS011;14345;48.272;25.926;2023-11-21T01:16:48;58.92;;;35.92;;
26750;SDS011;14345;48.272;25.926;2023-11-21T01:19:14;58.35;;;35.65;;
26750;SDS011;14345;48.272;25.926;2023-11-21T01:21:40;55.80;;;35.28;;
26750;SDS011;14345;48.272;25.926;2023-11-21T01:24:07;53.60;;;34.63;;
26750;SDS011;14345;48.272;25.926;2023-11-21T01:26:33;59.70;;;37.95;;
26750;SDS011;14345;48.272;25.926;2023-11-21T01:28:59;55.28;;;35.35;;
26750;SDS011;14345;48.272;25.926;2023-11-21T01:31:25;60.55;;;37.25;;
26750;SDS011;14345;48.272;25.926;2023-11-21T01:33:54;61.78;;;38.15;;
26750;SDS011;14345;48.272;25.926;2023-11-21T01:36:20;60.03;;;37.67;;
26750;SDS011;14345;48.272;25.926;2023-11-21T01:38:47;58.15;;;36.13;;
26750;SDS011;14345;48.272;25.926;2023-11-21T01:41:16;58.20;;;37.03;;
26750;SDS011;14345;48.272;25.926;2023-11-21T01:43:42;66.05;;;38.80;;
26750;SDS011;14345;48.272;25.926;2023-11-21T01:46:08;57.53;;;36.42;;
26750;SDS011;14345;48.272;25.926;2023-11-21T01:48:35;58.45;;;38.20;;
26750;SDS011;14345;48.272;25.926;2023-11-21T01:51:01;56.05;;;35.40;;
26750;SDS011;14345;48.272;25.926;2023-11-21T01:53:27;57.28;;;36.45;;
26750;SDS011;14345;48.272;25.926;2023-11-21T01:55:54;56.25;;;36.67;;
26750;SDS011;14345;48.272;25.926;2023-11-21T01:58:21;61.08;;;37.92;;
26750;SDS011;14345;48.272;25.926;2023-11-21T02:00:47;51.30;;;34.17;;
26750;SDS011;14345;48.272;25.926;2023-11-21T02:03:16;53.00;;;33.72;;
26750;SDS011;14345;48.272;25.926;2023-11-21T02:05:42;49.22;;;32.33;;
26750;SDS011;14345;48.272;25.926;2023-11-21T02:08:08;51.85;;;32.35;;
26750;SDS011;14345;48.272;25.926;2023-11-21T02:10:34;51.13;;;33.08;;
26750;SDS011;14345;48.272;25.926;2023-11-21T02:13:02;52.55;;;33.25;;
26750;SDS011;14345;48.272;25.926;2023-11-21T02:15:29;49.63;;;31.63;;
26750;SDS011;14345;48.272;25.926;2023-11-21T02:17:55;53.20;;;32.83;;
26750;SDS011;14345;48.272;25.926;2023-11-21T02:20:23;51.92;;;33.70;;
26750;SDS011;14345;48.272;25.926;2023-11-21T02:22:51;54.58;;;33.45;;
26750;SDS011;14345;48.272;25.926;2023-11-21T02:25:32;52.10;;;32.83;;
26750;SDS011;14345;48.272;25.926;2023-11-21T02:27:59;52.92;;;33.20;;
26750;SDS011;14345;48.272;25.926;2023-11-21T02:30:26;52.22;;;33.25;;
26750;SDS011;14345;48.272;25.926;2023-11-21T02:32:58;49.80;;;31.52;;
26750;SDS011;14345;48.272;25.926;2023-11-21T02:35:24;50.35;;;31.67;;
26750;SDS011;14345;48.272;25.926;2023-11-21T02:37:53;51.28;;;32.47;;
26750;SDS011;14345;48.272;25.926;2023-11-21T02:40:19;49.00;;;31.67;;
26750;SDS011;14345;48.272;25.926;2023-11-21T02:42:48;48.50;;;32.10;;
26750;SDS011;14345;48.272;25.926;2023-11-21T02:45:18;50.40;;;30.63;;
26750;SDS011;14345;48.272;25.926;2023-11-21T02:47:45;53.17;;;32.20;;
26750;SDS011;14345;48.272;25.926;2023-11-21T02:50:12;45.47;;;31.02;;
26750;SDS011;14345;48.272;25.926;2023-11-21T02:52:38;50.42;;;32.10;;
26750;SDS011;14345;48.272;25.926;2023-11-21T02:55:07;47.88;;;31.23;;
26750;SDS011;14345;48.272;25.926;2023-11-21T02:57:33;47.03;;;29.98;;
26750;SDS011;14345;48.272;25.926;2023-11-21T02:59:59;45.20;;;29.40;;
26750;SDS011;14345;48.272;25.926;2023-11-21T03:02:25;47.80;;;30.27;;
26750;SDS011;14345;48.272;25.926;2023-11-21T03:04:52;50.63;;;32.33;;
26750;SDS011;14345;48.272;25.926;2023-11-21T03:07:18;50.63;;;32.10;;
26750;SDS011;14345;48.272;25.926;2023-11-21T03:09:44;47.90;;;31.42;;
26750;SDS011;14345;48.272;25.926;2023-11-21T03:12:10;47.17;;;31.02;;
26750;SDS011;14345;48.272;25.926;2023-11-21T03:14:41;48.35;;;29.92;;
26750;SDS011;14345;48.272;25.926;2023-11-21T03:17:07;45.63;;;30.75;;
26750;SDS011;14345;48.272;25.926;2023-11-21T03:19:33;46.97;;;30.98;;
26750;SDS011;14345;48.272;25.926;2023-11-21T03:21:59;44.97;;;30.13;;
26750;SDS011;14345;48.272;25.926;2023-11-21T03:24:25;43.22;;;30.25;;
26750;SDS011;14345;48.272;25.926;2023-11-21T03:26:51;48.28;;;31.60;;
26750;SDS011;14345;48.272;25.926;2023-11-21T03:29:17;44.40;;;29.27;;
26750;SDS011;14345;48.272;25.926;2023-11-21T03:31:44;45.03;;;29.77;;
26750;SDS011;14345;48.272;25.926;2023-11-21T03:34:14;43.88;;;29.48;;
26750;SDS011;14345;48.272;25.926;2023-11-21T03:36:40;48.10;;;31.40;;
26750;SDS011;14345;48.272;25.926;2023-11-21T03:39:07;44.13;;;29.80;;
26750;SDS011;14345;48.272;25.926;2023-11-21T03:41:33;45.05;;;30.23;;
26750;SDS011;14345;48.272;25.926;2023-11-21T03:43:59;46.10;;;29.60;;
26750;SDS011;14345;48.272;25.926;2023-11-21T03:46:25;45.95;;;31.80;;
26750;SDS011;14345;48.272;25.926;2023-11-21T03:48:51;50.63;;;32.38;;
26750;SDS011;14345;48.272;25.926;2023-11-21T03:51:17;46.35;;;31.42;;
26750;SDS011;14345;48.272;25.926;2023-11-21T03:53:43;46.05;;;29.83;;
26750;SDS011;14345;48.272;25.926;2023-11-21T03:56:09;42.78;;;29.40;;
26750;SDS011;14345;48.272;25.926;2023-11-21T03:58:35;43.75;;;29.25;;
26750;SDS011;14345;48.272;25.926;2023-11-21T04:01:01;42.88;;;28.98;;
26750;SDS011;14345;48.272;25.926;2023-11-21T04:03:27;44.67;;;29.25;;
26750;SDS011;14345;48.272;25.926;2023-11-21T04:05:53;43.22;;;29.30;;
26750;SDS011;14345;48.272;25.926;2023-11-21T04:08:19;42.85;;;29.23;;
26750;SDS011;14345;48.272;25.926;2023-11-21T04:10:45;47.25;;;31.20;;
26750;SDS011;14345;48.272;25.926;2023-11-21T04:13:11;45.28;;;29.75;;
26750;SDS011;14345;48.272;25.926;2023-11-21T04:15:38;43.80;;;29.65;;
26750;SDS011;14345;48.272;25.926;2023-11-21T04:18:04;47.28;;;30.88;;
26750;SDS011;14345;48.272;25.926;2023-11-21T04:20:30;45.72;;;30.10;;
26750;SDS011;14345;48.272;25.926;2023-11-21T04:22:56;45.88;;;29.83;;
26750;SDS011;14345;48.272;25.926;2023-11-21T04:25:22;45.20;;;30.15;;
26750;SDS011;14345;48.272;25.926;2023-11-21T04:27:48;52.35;;;34.53;;
26750;SDS011;14345;48.272;25.926;2023-11-21T04:30:15;54.97;;;35.90;;
26750;SDS011;14345;48.272;25.926;2023-11-21T04:32:41;58.80;;;36.95;;
26750;SDS011;14345;48.272;25.926;2023-11-21T04:35:07;58.67;;;38.78;;
26750;SDS011;14345;48.272;25.926;2023-11-21T04:37:36;59.15;;;38.65;;
26750;SDS011;14345;48.272;25.926;2023-11-21T04:40:02;60.25;;;38.88;;
26750;SDS011;14345;48.272;25.926;2023-11-21T04:42:35;59.28;;;36.60;;
26750;SDS011;14345;48.272;25.926;2023-11-21T04:45:01;61.97;;;38.72;;
26750;SDS011;14345;48.272;25.926;2023-11-21T04:47:32;58.17;;;38.28;;
26750;SDS011;14345;48.272;25.926;2023-11-21T04:49:58;59.55;;;37.45;;
26750;SDS011;14345;48.272;25.926;2023-11-21T04:52:24;52.17;;;34.78;;
26750;SDS011;14345;48.272;25.926;2023-11-21T04:54:50;57.60;;;35.30;;
26750;SDS011;14345;48.272;25.926;2023-11-21T04:57:19;51.65;;;33.67;;
26750;SDS011;14345;48.272;25.926;2023-11-21T04:59:45;50.38;;;33.22;;
26750;SDS011;14345;48.272;25.926;2023-11-21T05:02:11;50.38;;;32.30;;
26750;SDS011;14345;48.272;25.926;2023-11-21T05:04:37;51.53;;;33.28;;
26750;SDS011;14345;48.272;25.926;2023-11-21T05:07:03;49.08;;;31.45;;
26750;SDS011;14345;48.272;25.926;2023-11-21T05:09:29;46.30;;;31.58;;
26750;SDS011;14345;48.272;25.926;2023-11-21T05:11:57;45.03;;;30.25;;
26750;SDS011;14345;48.272;25.926;2023-11-21T05:14:23;43.80;;;29.92;;
26750;SDS011;14345;48.272;25.926;2023-11-21T05:16:49;45.33;;;29.80;;
26750;SDS011;14345;48.272;25.926;2023-11-21T05:19:16;44.05;;;29.77;;
26750;SDS011;14345;48.272;25.926;2023-11-21T05:21:43;43.17;;;29.40;;
26750;SDS011;14345;48.272;25.926;2023-11-21T05:24:09;47.75;;;31.17;;
26750;SDS011;14345;48.272;25.926;2023-11-21T05:26:35;43.25;;;29.00;;
26750;SDS011;14345;48.272;25.926;2023-11-21T05:29:01;43.88;;;29.25;;
26750;SDS011;14345;48.272;25.926;2023-11-21T05:31:27;45.90;;;31.30;;
26750;SDS011;14345;48.272;25.926;2023-11-21T05:33:53;43.03;;;29.00;;
26750;SDS011;14345;48.272;25.926;2023-11-21T05:36:19;47.63;;;32.22;;
26750;SDS011;14345;48.272;25.926;2023-11-21T05:38:45;48.17;;;32.20;;
26750;SDS011;14345;48.272;25.926;2023-11-21T05:41:11;50.20;;;32.83;;
26750;SDS011;14345;48.272;25.926;2023-11-21T05:43:38;41.88;;;29.38;;
26750;SDS011;14345;48.272;25.926;2023-11-21T05:46:05;47.47;;;30.77;;
26750;SDS011;14345;48.272;25.926;2023-11-21T05:48:32;46.10;;;30.60;;
26750;SDS011;14345;48.272;25.926;2023-11-21T05:50:58;46.70;;;30.40;;
26750;SDS011;14345;48.272;25.926;2023-11-21T05:53:26;44.60;;;29.85;;
26750;SDS011;14345;48.272;25.926;2023-11-21T05:55:52;44.53;;;29.48;;
26750;SDS011;14345;48.272;25.926;2023-11-21T05:58:18;43.60;;;30.27;;
26750;SDS011;14345;48.272;25.926;2023-11-21T06:00:45;45.08;;;30.30;;
26750;SDS011;14345;48.272;25.926;2023-11-21T06:03:11;44.03;;;29.85;;
26750;SDS011;14345;48.272;25.926;2023-11-21T06:05:37;47.50;;;31.23;;
26750;SDS011;14345;48.272;25.926;2023-11-21T06:08:03;44.15;;;29.88;;
26750;SDS011;14345;48.272;25.926;2023-11-21T06:10:29;47.65;;;31.55;;
26750;SDS011;14345;48.272;25.926;2023-11-21T06:12:55;50.78;;;31.67;;
26750;SDS011;14345;48.272;25.926;2023-11-21T06:15:22;47.72;;;31.30;;
26750;SDS011;14345;48.272;25.926;2023-11-21T06:17:49;51.38;;;33.38;;
26750;SDS011;14345;48.272;25.926;2023-11-21T06:20:17;48.67;;;31.95;;
26750;SDS011;14345;48.272;25.926;2023-11-21T06:22:45;47.40;;;31.83;;
26750;SDS011;14345;48.272;25.926;2023-11-21T06:25:11;50.72;;;32.95;;
26750;SDS011;14345;48.272;25.926;2023-11-21T06:27:43;52.50;;;32.50;;
26750;SDS011;14345;48.272;25.926;2023-11-21T06:30:16;49.03;;;32.42;;
26750;SDS011;14345;48.272;25.926;2023-11-21T06:32:45;47.47;;;31.65;;
26750;SDS011;14345;48.272;25.926;2023-11-21T06:35:11;47.80;;;30.65;;
26750;SDS011;14345;48.272;25.926;2023-11-21T06:37:38;47.40;;;32.85;;
26750;SDS011;14345;48.272;25.926;2023-11-21T06:40:04;44.33;;;30.00;;
26750;SDS011;14345;48.272;25.926;2023-11-21T06:42:31;42.60;;;29.40;;
26750;SDS011;14345;48.272;25.926;2023-11-21T06:44:58;43.40;;;29.38;;
26750;SDS011;14345;48.272;25.926;2023-11-21T06:47:28;44.38;;;30.00;;
26750;SDS011;14345;48.272;25.926;2023-11-21T06:49:56;42.90;;;29.33;;
26750;SDS011;14345;48.272;25.926;2023-11-21T06:52:22;40.50;;;28.17;;
26750;SDS011;14345;48.272;25.926;2023-11-21T06:54:49;47.05;;;30.85;;
26750;SDS011;14345;48.272;25.926;2023-11-21T06:57:15;49.47;;;31.48;;
26750;SDS011;14345;48.272;25.926;2023-11-21T06:59:41;47.55;;;30.35;;
26750;SDS011;14345;48.272;25.926;2023-11-21T07:02:07;42.90;;;29.92;;
26750;SDS011;14345;48.272;25.926;2023-11-21T07:04:34;45.00;;;31.23;;
26750;SDS011;14345;48.272;25.926;2023-11-21T07:07:01;49.47;;;32.10;;
26750;SDS011;14345;48.272;25.926;2023-11-21T07:09:28;43.95;;;28.30;;
26750;SDS011;14345;48.272;25.926;2023-11-21T07:11:54;43.08;;;29.52;;
26750;SDS011;14345;48.272;25.926;2023-11-21T07:14:20;45.92;;;30.92;;
26750;SDS011;14345;48.272;25.926;2023-11-21T07:16:47;43.00;;;28.30;;
26750;SDS011;14345;48.272;25.926;2023-11-21T07:19:13;43.20;;;28.27;;
26750;SDS011;14345;48.272;25.926;2023-11-21T07:21:39;44.10;;;29.73;;
26750;SDS011;14345;48.272;25.926;2023-11-21T07:24:06;40.85;;;28.20;;
26750;SDS011;14345;48.272;25.926;2023-11-21T07:26:33;44.63;;;29.02;;
26750;SDS011;14345;48.272;25.926;2023-11-21T07:29:00;42.65;;;27.42;;
26750;SDS011;14345;48.272;25.926;2023-11-21T07:31:26;43.75;;;29.02;;
26750;SDS011;14345;48.272;25.926;2023-11-21T07:33:52;40.47;;;27.80;;
26750;SDS011;14345;48.272;25.926;2023-11-21T07:36:21;42.85;;;27.15;;
26750;SDS011;14345;48.272;25.926;2023-11-21T07:38:47;42.90;;;27.70;;
26750;SDS011;14345;48.272;25.926;2023-11-21T07:41:13;46.00;;;29.58;;
26750;SDS011;14345;48.272;25.926;2023-11-21T07:43:45;43.70;;;28.45;;
26750;SDS011;14345;48.272;25.926;2023-11-21T07:46:11;46.10;;;29.48;;
26750;SDS011;14345;48.272;25.926;2023-11-21T07:48:38;46.65;;;30.27;;
26750;SDS011;14345;48.272;25.926;2023-11-21T07:51:04;45.92;;;30.80;;
26750;SDS011;14345;48.272;25.926;2023-11-21T07:53:32;47.40;;;30.50;;
26750;SDS011;14345;48.272;25.926;2023-11-21T07:55:58;45.38;;;31.63;;
26750;SDS011;14345;48.272;25.926;2023-11-21T07:58:24;45.97;;;31.58;;
26750;SDS011;14345;48.272;25.926;2023-11-21T08:00:50;52.30;;;34.08;;
26750;SDS011;14345;48.272;25.926;2023-11-21T08:03:17;46.75;;;32.10;;
26750;SDS011;14345;48.272;25.926;2023-11-21T08:05:43;50.40;;;33.00;;
26750;SDS011;14345;48.272;25.926;2023-11-21T08:08:09;52.72;;;33.28;;
26750;SDS011;14345;48.272;25.926;2023-11-21T08:10:36;51.17;;;33.78;;
26750;SDS011;14345;48.272;25.926;2023-11-21T08:13:02;49.83;;;32.75;;
26750;SDS011;14345;48.272;25.926;2023-11-21T08:15:29;51.97;;;35.10;;
26750;SDS011;14345;48.272;25.926;2023-11-21T08:17:57;52.65;;;34.38;;
26750;SDS011;14345;48.272;25.926;2023-11-21T08:20:24;53.20;;;35.58;;
26750;SDS011;14345;48.272;25.926;2023-11-21T08:22:50;54.20;;;35.67;;
26750;SDS011;14345;48.272;25.926;2023-11-21T08:25:18;51.55;;;34.35;;
26750;SDS011;14345;48.272;25.926;2023-11-21T08:27:45;44.40;;;31.05;;
26750;SDS011;14345;48.272;25.926;2023-11-21T08:30:11;48.72;;;32.08;;
26750;SDS011;14345;48.272;25.926;2023-11-21T08:32:39;44.83;;;30.30;;
26750;SDS011;14345;48.272;25.926;2023-11-21T08:35:07;48.22;;;30.67;;
26750;SDS011;14345;48.272;25.926;2023-11-21T08:37:33;43.50;;;30.00;;
26750;SDS011;14345;48.272;25.926;2023-11-21T08:40:02;40.90;;;27.98;;
26750;SDS011;14345;48.272;25.926;2023-11-21T08:42:29;38.92;;;26.33;;
26750;SDS011;14345;48.272;25.926;2023-11-21T08:44:58;37.22;;;24.58;;
26750;SDS011;14345;48.272;25.926;2023-11-21T08:47:24;37.53;;;25.15;;
26750;SDS011;14345;48.272;25.926;2023-11-21T08:49:51;41.72;;;26.40;;
26750;SDS011;14345;48.272;25.926;2023-11-21T08:52:20;34.85;;;24.38;;
26750;SDS011;14345;48.272;25.926;2023-11-21T08:54:49;34.17;;;23.00;;
26750;SDS011;14345;48.272;25.926;2023-11-21T08:57:24;35.17;;;22.80;;
26750;SDS011;14345;48.272;25.926;2023-11-21T08:59:50;34.33;;;23.25;;
26750;SDS011;14345;48.272;25.926;2023-11-21T09:02:25;35.78;;;23.83;;
26750;SDS011;14345;48.272;25.926;2023-11-21T09:04:52;35.85;;;24.90;;
26750;SDS011;14345;48.272;25.926;2023-11-21T09:07:18;35.53;;;23.33;;
26750;SDS011;14345;48.272;25.926;2023-11-21T09:09:48;36.90;;;24.52;;
26750;SDS011;14345;48.272;25.926;2023-11-21T09:12:14;34.55;;;23.95;;
26750;SDS011;14345;48.272;25.926;2023-11-21T09:14:41;37.17;;;24.23;;
26750;SDS011;14345;48.272;25.926;2023-11-21T09:17:07;37.90;;;24.95;;
26750;SDS011;14345;48.272;25.926;2023-11-21T09:19:38;37.75;;;26.60;;
26750;SDS011;14345;48.272;25.926;2023-11-21T09:22:05;38.35;;;26.20;;
26750;SDS011;14345;48.272;25.926;2023-11-21T09:24:34;39.55;;;26.80;;
26750;SDS011;14345;48.272;25.926;2023-11-21T09:27:00;41.72;;;28.15;;
26750;SDS011;14345;48.272;25.926;2023-11-21T09:29:26;40.85;;;28.10;;
26750;SDS011;14345;48.272;25.926;2023-11-21T09:31:53;39.65;;;27.77;;
26750;SDS011;14345;48.272;25.926;2023-11-21T09:34:20;43.35;;;28.77;;
26750;SDS011;14345;48.272;25.926;2023-11-21T09:36:46;44.05;;;30.65;;
26750;SDS011;14345;48.272;25.926;2023-11-21T09:39:13;49.30;;;32.08;;
26750;SDS011;14345;48.272;25.926;2023-11-21T09:41:49;50.75;;;33.42;;
26750;SDS011;14345;48.272;25.926;2023-11-21T09:44:21;46.83;;;32.72;;
26750;SDS011;14345;48.272;25.926;2023-11-21T09:46:48;53.17;;;34.17;;
26750;SDS011;14345;48.272;25.926;2023-11-21T09:49:14;56.13;;;36.35;;
26750;SDS011;14345;48.272;25.926;2023-11-21T09:51:44;58.38;;;36.75;;
26750;SDS011;14345;48.272;25.926;2023-11-21T09:54:10;55.13;;;35.10;;
26750;SDS011;14345;48.272;25.926;2023-11-21T09:56:37;50.50;;;33.72;;
26750;SDS011;14345;48.272;25.926;2023-11-21T09:59:03;51.78;;;33.90;;
26750;SDS011;14345;48.272;25.926;2023-11-21T10:01:35;46.42;;;31.45;;
26750;SDS011;14345;48.272;25.926;2023-11-21T10:04:05;42.22;;;29.05;;
26750;SDS011;14345;48.272;25.926;2023-11-21T10:06:37;38.35;;;27.55;;
26750;SDS011;14345;48.272;25.926;2023-11-21T10:09:04;36.63;;;25.77;;
26750;SDS011;14345;48.272;25.926;2023-11-21T10:11:36;39.10;;;26.70;;
26750;SDS011;14345;48.272;25.926;2023-11-21T10:14:03;37.80;;;27.45;;
26750;SDS011;14345;48.272;25.926;2023-11-21T10:16:29;40.22;;;28.30;;
26750;SDS011;14345;48.272;25.926;2023-11-21T10:18:57;38.08;;;27.90;;
26750;SDS011;14345;48.272;25.926;2023-11-21T10:21:23;39.60;;;28.13;;
26750;SDS011;14345;48.272;25.926;2023-11-21T10:23:50;34.78;;;26.15;;
26750;SDS011;14345;48.272;25.926;2023-11-21T10:26:18;34.05;;;24.33;;
26750;SDS011;14345;48.272;25.926;2023-11-21T10:28:58;32.08;;;23.52;;
26750;SDS011;14345;48.272;25.926;2023-11-21T10:31:28;29.90;;;22.58;;
26750;SDS011;14345;48.272;25.926;2023-11-21T10:33:55;29.67;;;22.23;;
26750;SDS011;14345;48.272;25.926;2023-11-21T10:36:26;30.15;;;22.13;;
26750;SDS011;14345;48.272;25.926;2023-11-21T10:38:53;32.92;;;24.10;;
26750;SDS011;14345;48.272;25.926;2023-11-21T10:41:20;33.10;;;24.27;;
26750;SDS011;14345;48.272;25.926;2023-11-21T10:43:46;32.25;;;23.88;;
26750;SDS011;14345;48.272;25.926;2023-11-21T10:46:13;27.30;;;20.95;;
26750;SDS011;14345;48.272;25.926;2023-11-21T10:48:43;27.92;;;20.55;;
26750;SDS011;14345;48.272;25.926;2023-11-21T10:51:09;27.35;;;20.02;;
26750;SDS011;14345;48.272;25.926;2023-11-21T10:53:39;28.00;;;20.95;;
26750;SDS011;14345;48.272;25.926;2023-11-21T10:56:09;33.07;;;21.77;;
26750;SDS011;14345;48.272;25.926;2023-11-21T10:58:42;29.23;;;21.25;;
26750;SDS011;14345;48.272;25.926;2023-11-21T11:01:08;29.85;;;21.75;;
26750;SDS011;14345;48.272;25.926;2023-11-21T11:03:39;33.95;;;23.83;;
26750;SDS011;14345;48.272;25.926;2023-11-21T11:06:05;32.38;;;23.58;;
26750;SDS011;14345;48.272;25.926;2023-11-21T11:08:36;33.83;;;23.42;;
26750;SDS011;14345;48.272;25.926;2023-11-21T11:11:04;29.25;;;21.10;;
26750;SDS011;14345;48.272;25.926;2023-11-21T11:13:30;29.60;;;20.67;;
26750;SDS011;14345;48.272;25.926;2023-11-21T11:15:59;26.65;;;19.38;;
26750;SDS011;14345;48.272;25.926;2023-11-21T11:18:32;26.50;;;19.98;;
26750;SDS011;14345;48.272;25.926;2023-11-21T11:26:34;26.02;;;19.85;;
26750;SDS011;14345;48.272;25.926;2023-11-21T11:36:49;26.52;;;19.13;;
26750;SDS011;14345;48.272;25.926;2023-11-21T11:39:27;27.45;;;20.38;;
26750;SDS011;14345;48.272;25.926;2023-11-21T11:41:55;28.08;;;20.05;;
26750;SDS011;14345;48.272;25.926;2023-11-21T11:47:16;30.58;;;21.75;;
26750;SDS011;14345;48.272;25.926;2023-11-21T11:52:40;27.55;;;19.90;;
26750;SDS011;14345;48.272;25.926;2023-11-21T11:55:07;30.40;;;20.50;;
26750;SDS011;14345;48.272;25.926;2023-11-21T11:57:37;31.42;;;21.83;;
26750;SDS011;14345;48.272;25.926;2023-11-21T12:02:37;33.80;;;22.13;;
26750;SDS011;14345;48.272;25.926;2023-11-21T12:05:11;31.35;;;21.48;;
26750;SDS011;14345;48.272;25.926;2023-11-21T12:07:44;29.08;;;20.92;;
26750;SDS011;14345;48.272;25.926;2023-11-21T12:10:14;31.73;;;21.73;;
26750;SDS011;14345;48.272;25.926;2023-11-21T12:12:43;32.35;;;21.45;;
26750;SDS011;14345;48.272;25.926;2023-11-21T12:15:10;29.88;;;21.48;;
26750;SDS011;14345;48.272;25.926;2023-11-21T12:17:37;30.73;;;21.73;;
26750;SDS011;14345;48.272;25.926;2023-11-21T12:20:04;28.77;;;20.83;;
26750;SDS011;14345;48.272;25.926;2023-11-21T12:22:41;28.50;;;19.75;;
26750;SDS011;14345;48.272;25.926;2023-11-21T12:25:08;32.30;;;21.80;;
26750;SDS011;14345;48.272;25.926;2023-11-21T12:27:34;32.05;;;22.20;;
26750;SDS011;14345;48.272;25.926;2023-11-21T12:30:00;30.52;;;22.40;;
26750;SDS011;14345;48.272;25.926;2023-11-21T12:32:26;31.05;;;22.45;;
26750;SDS011;14345;48.272;25.926;2023-11-21T12:34:52;30.15;;;21.90;;
26750;SDS011;14345;48.272;25.926;2023-11-21T12:37:18;31.23;;;22.67;;
26750;SDS011;14345;48.272;25.926;2023-11-21T12:39:44;31.23;;;22.33;;
26750;SDS011;14345;48.272;25.926;2023-11-21T12:42:10;33.80;;;23.40;;
26750;SDS011;14345;48.272;25.926;2023-11-21T12:44:36;33.72;;;23.63;;
26750;SDS011;14345;48.272;25.926;2023-11-21T12:47:06;33.72;;;23.67;;
26750;SDS011;14345;48.272;25.926;2023-11-21T12:49:32;30.52;;;22.75;;
26750;SDS011;14345;48.272;25.926;2023-11-21T12:51:59;33.05;;;23.92;;
26750;SDS011;14345;48.272;25.926;2023-11-21T12:54:25;32.83;;;22.85;;
26750;SDS011;14345;48.272;25.926;2023-11-21T12:56:51;32.65;;;22.48;;
26750;SDS011;14345;48.272;25.926;2023-11-21T12:59:17;32.83;;;23.40;;
26750;SDS011;14345;48.272;25.926;2023-11-21T13:01:43;34.47;;;24.63;;
26750;SDS011;14345;48.272;25.926;2023-11-21T13:04:10;47.83;;;32.38;;
26750;SDS011;14345;48.272;25.926;2023-11-21T13:06:37;44.70;;;30.35;;
26750;SDS011;14345;48.272;25.926;2023-11-21T13:09:09;40.25;;;27.08;;
26750;SDS011;14345;48.272;25.926;2023-11-21T13:11:45;37.13;;;26.35;;
26750;SDS011;14345;48.272;25.926;2023-11-21T13:14:11;37.85;;;25.85;;
26750;SDS011;14345;48.272;25.926;2023-11-21T13:16:37;37.25;;;27.25;;
26750;SDS011;14345;48.272;25.926;2023-11-21T13:19:07;33.35;;;23.85;;
26750;SDS011;14345;48.272;25.926;2023-11-21T13:21:33;37.40;;;26.17;;
26750;SDS011;14345;48.272;25.926;2023-11-21T13:24:00;39.00;;;26.65;;
26750;SDS011;14345;48.272;25.926;2023-11-21T13:26:26;37.05;;;26.08;;
26750;SDS011;14345;48.272;25.926;2023-11-21T13:28:52;35.63;;;25.48;;
26750;SDS011;14345;48.272;25.926;2023-11-21T13:31:18;36.13;;;25.73;;
26750;SDS011;14345;48.272;25.926;2023-11-21T13:33:57;38.17;;;26.98;;
26750;SDS011;14345;48.272;25.926;2023-11-21T13:36:30;38.08;;;26.00;;
26750;SDS011;14345;48.272;25.926;2023-11-21T13:38:58;38.85;;;25.55;;
26750;SDS011;14345;48.272;25.926;2023-11-21T13:41:29;35.75;;;25.00;;
26750;SDS011;14345;48.272;25.926;2023-11-21T13:43:58;32.22;;;23.73;;
26750;SDS011;14345;48.272;25.926;2023-11-21T13:46:43;34.00;;;24.10;;
26750;SDS011;14345;48.272;25.926;2023-11-21T13:49:10;32.72;;;24.55;;
26750;SDS011;14345;48.272;25.926;2023-11-21T13:51:37;34.50;;;24.13;;
26750;SDS011;14345;48.272;25.926;2023-11-21T13:54:09;33.38;;;23.95;;
26750;SDS011;14345;48.272;25.926;2023-11-21T13:56:38;33.55;;;24.17;;
26750;SDS011;14345;48.272;25.926;2023-11-21T13:59:06;35.10;;;25.52;;
26750;SDS011;14345;48.272;25.926;2023-11-21T14:01:55;37.42;;;24.60;;
26750;SDS011;14345;48.272;25.926;2023-11-21T14:04:23;33.13;;;23.80;;
26750;SDS011;14345;48.272;25.926;2023-11-21T14:07:12;35.13;;;25.30;;
26750;SDS011;14345;48.272;25.926;2023-11-21T14:09:57;37.45;;;25.13;;
26750;SDS011;14345;48.272;25.926;2023-11-21T14:12:23;46.30;;;26.80;;
26750;SDS011;14345;48.272;25.926;2023-11-21T14:14:49;42.42;;;26.70;;
26750;SDS011;14345;48.272;25.926;2023-11-21T14:17:15;38.25;;;26.73;;
26750;SDS011;14345;48.272;25.926;2023-11-21T14:19:42;36.67;;;25.85;;
26750;SDS011;14345;48.272;25.926;2023-11-21T14:22:11;42.08;;;28.40;;
26750;SDS011;14345;48.272;25.926;2023-11-21T14:24:37;39.40;;;27.48;;
26750;SDS011;14345;48.272;25.926;2023-11-21T14:27:09;36.78;;;26.60;;
26750;SDS011;14345;48.272;25.926;2023-11-21T14:29:35;37.83;;;26.42;;
26750;SDS011;14345;48.272;25.926;2023-11-21T14:32:04;39.95;;;27.00;;